createdAt,value
2022-12-12T00:01:23.570Z,96963.78
2022-12-12T00:03:52.435Z,96957.47
2022-12-12T00:06:23.362Z,96954.03
2022-12-12T00:08:52.128Z,96962.84
2022-12-12T00:11:20.654Z,96960.47
2022-12-12T00:13:48.942Z,96951.38
2022-12-12T00:16:17.405Z,96955.41
2022-12-12T00:18:45.439Z,96953.81
2022-12-12T00:21:17.017Z,96960.28
2022-12-12T00:23:46.818Z,96960.41
2022-12-12T00:26:18.962Z,96945.47
2022-12-12T00:28:47.411Z,96951.22
2022-12-12T00:31:16.239Z,96952.81
2022-12-12T00:33:45.028Z,96953.97
2022-12-12T00:36:13.076Z,96945.75
2022-12-12T00:38:41.619Z,96956.53
2022-12-12T00:41:11.035Z,96952.97
2022-12-12T00:43:39.124Z,96951.38
2022-12-12T00:46:07.683Z,96953.03
2022-12-12T00:48:35.806Z,96960.22
2022-12-12T00:51:09.057Z,96935.44
2022-12-12T00:53:37.386Z,96944.38
2022-12-12T00:56:05.954Z,96953.72
2022-12-12T00:58:35.794Z,96941.09
2022-12-12T01:01:10.608Z,96948.31
2022-12-12T01:03:40.726Z,96946.50
2022-12-12T01:06:09.208Z,96938.72
2022-12-12T01:08:37.570Z,96935.75
2022-12-12T01:11:06.398Z,96940.94
2022-12-12T01:13:36.542Z,96927.50
2022-12-12T01:16:05.706Z,96942.25
2022-12-12T01:18:34.065Z,96936.97
2022-12-12T01:21:02.176Z,96930.09
2022-12-12T01:23:30.417Z,96927.81
2022-12-12T01:26:02.778Z,96933.84
2022-12-12T01:28:30.888Z,96921.38
2022-12-12T01:31:00.356Z,96914.34
2022-12-12T01:33:28.426Z,96922.63
2022-12-12T01:35:56.884Z,96917.38
2022-12-12T01:38:25.302Z,96924.19
2022-12-12T01:40:53.791Z,96916.19
2022-12-12T01:43:23.999Z,96913.69
2022-12-12T01:46:46.119Z,96918.16
2022-12-12T01:49:20.105Z,96912.91
2022-12-12T01:51:49.480Z,96923.41
2022-12-12T01:54:23.208Z,96908.69
2022-12-12T01:56:52.787Z,96905.06
2022-12-12T01:59:23.691Z,96913.84
2022-12-12T02:01:53.316Z,96914.84
2022-12-12T02:04:23.811Z,96918.06
2022-12-12T02:06:53.354Z,96914.56
2022-12-12T02:09:22.938Z,96906.94
2022-12-12T02:11:53.082Z,96897.31
2022-12-12T02:14:25.416Z,96910.72
2022-12-12T02:17:17.216Z,96901.88
2022-12-12T02:20:39.987Z,96913.59
2022-12-12T02:23:39.575Z,96919.28
2022-12-12T02:26:36.036Z,96912.06
2022-12-12T02:29:30.267Z,96908.69
2022-12-12T02:32:07.655Z,96897.72
2022-12-12T02:34:43.361Z,96923.03
2022-12-12T02:37:20.434Z,96912.41
2022-12-12T02:39:55.640Z,96905.25
2022-12-12T02:42:32.670Z,96913.59
2022-12-12T02:45:07.247Z,96915.97
2022-12-12T02:47:44.426Z,96916.78
2022-12-12T02:50:17.143Z,96906.91
2022-12-12T02:52:46.733Z,96907.94
2022-12-12T02:55:15.220Z,96903.47
2022-12-12T02:57:43.812Z,96899.50
2022-12-12T03:00:14.634Z,96903.22
2022-12-12T03:03:25.528Z,96901.88
2022-12-12T03:06:27.043Z,96897.31
2022-12-12T03:09:06.238Z,96898.66
2022-12-12T03:11:46.666Z,96918.47
2022-12-12T03:14:24.823Z,96901.56
2022-12-12T03:17:02.297Z,96901.88
2022-12-12T03:19:40.364Z,96903.31
2022-12-12T03:22:13.341Z,96906.59
2022-12-12T03:24:49.840Z,96905.00
2022-12-12T03:27:23.442Z,96900.00
2022-12-12T03:29:57.739Z,96910.78
2022-12-12T03:32:30.525Z,96910.72
2022-12-12T03:35:04.337Z,96898.16
2022-12-12T03:37:36.081Z,96900.59
2022-12-12T03:40:10.093Z,96896.72
2022-12-12T03:42:44.478Z,96895.31
2022-12-12T03:45:17.784Z,96892.66
2022-12-12T03:47:54.581Z,96914.13
2022-12-12T03:50:28.347Z,96903.28
2022-12-12T03:53:00.580Z,96895.31
2022-12-12T03:55:36.187Z,96904.25
2022-12-12T03:58:11.465Z,96900.84
2022-12-12T04:00:40.706Z,96917.22
2022-12-12T04:03:16.777Z,96909.78
2022-12-12T04:06:20.197Z,96906.66
2022-12-12T04:09:02.945Z,96907.94
2022-12-12T04:12:00.260Z,96907.38
2022-12-12T04:14:54.114Z,96896.50
2022-12-12T04:17:30.835Z,96904.97
2022-12-12T04:20:21.975Z,96903.38
2022-12-12T04:23:16.952Z,96894.13
2022-12-12T04:26:19.030Z,96920.22
2022-12-12T04:28:56.676Z,96904.03
2022-12-12T04:31:27.884Z,96901.84
2022-12-12T04:34:02.414Z,96910.38
2022-12-12T04:36:33.203Z,96904.22
2022-12-12T04:39:04.723Z,96919.06
2022-12-12T04:41:35.833Z,96920.22
2022-12-12T04:44:07.298Z,96922.50
2022-12-12T04:46:35.511Z,96918.25
2022-12-12T04:49:08.134Z,96911.91
2022-12-12T04:51:42.253Z,96923.78
2022-12-12T04:54:17.625Z,96917.63
2022-12-12T04:56:50.291Z,96915.19
2022-12-12T04:59:18.480Z,96916.28
2022-12-12T05:01:53.763Z,96921.00
2022-12-12T05:04:28.687Z,96916.09
2022-12-12T05:07:02.770Z,96909.25
2022-12-12T05:09:32.516Z,96924.63
2022-12-12T05:12:00.603Z,96925.63
2022-12-12T05:14:28.858Z,96938.88
2022-12-12T05:17:03.118Z,96920.22
2022-12-12T05:19:31.243Z,96928.75
2022-12-12T05:21:59.338Z,96920.84
2022-12-12T05:24:30.863Z,96912.31
2022-12-12T05:27:00.430Z,96926.59
2022-12-12T05:29:28.578Z,96921.38
2022-12-12T05:31:56.552Z,96917.00
2022-12-12T05:34:24.674Z,96916.69
2022-12-12T05:36:52.826Z,96926.91
2022-12-12T05:39:21.149Z,96920.31
2022-12-12T05:41:49.378Z,96921.13
2022-12-12T05:44:18.743Z,96920.41
2022-12-12T05:46:46.751Z,96914.25
2022-12-12T05:49:14.826Z,96908.69
2022-12-12T05:51:42.976Z,96927.75
2022-12-12T05:54:11.027Z,96918.69
2022-12-12T05:56:39.122Z,96937.72
2022-12-12T05:59:07.215Z,96932.75
2022-12-12T06:01:36.588Z,96933.16
2022-12-12T06:04:04.649Z,96931.16
2022-12-12T06:06:32.781Z,96931.66
2022-12-12T06:09:00.908Z,96949.34
2022-12-12T06:11:28.914Z,96945.47
2022-12-12T06:13:56.921Z,96951.88
2022-12-12T06:16:25.078Z,96951.09
2022-12-12T06:18:55.232Z,96951.25
2022-12-12T06:21:23.277Z,96960.06
2022-12-12T06:23:51.456Z,96958.38
2022-12-12T06:26:21.337Z,96962.69
2022-12-12T06:28:50.185Z,96963.44
2022-12-12T06:31:19.243Z,96962.25
2022-12-12T06:33:47.400Z,96964.88
2022-12-12T06:36:24.158Z,96964.41
2022-12-12T06:38:53.173Z,96961.56
2022-12-12T06:41:22.025Z,96966.13
2022-12-12T06:43:50.581Z,96963.16
2022-12-12T06:46:24.343Z,96975.09
2022-12-12T06:48:54.017Z,96963.47
2022-12-12T06:51:25.020Z,96967.81
2022-12-12T06:53:53.074Z,96971.44
2022-12-12T06:56:23.503Z,96972.91
2022-12-12T06:58:52.095Z,96970.09
2022-12-12T07:01:21.826Z,96974.13
2022-12-12T07:03:51.830Z,96973.25
2022-12-12T07:06:22.733Z,96980.28
2022-12-12T07:08:53.021Z,96984.09
2022-12-12T07:11:22.550Z,96985.22
2022-12-12T07:13:51.226Z,96971.59
2022-12-12T07:16:20.007Z,96978.50
2022-12-12T07:18:48.435Z,96977.53
2022-12-12T07:21:18.347Z,96986.13
2022-12-12T07:23:46.767Z,96987.25
2022-12-12T07:26:18.877Z,96979.81
2022-12-12T07:28:47.007Z,96977.66
2022-12-12T07:31:16.599Z,96978.19
2022-12-12T07:33:44.958Z,96982.91
2022-12-12T07:36:14.965Z,96975.81
2022-12-12T07:38:43.430Z,96983.09
2022-12-12T07:41:14.084Z,96979.72
2022-12-12T07:43:45.892Z,96981.38
2022-12-12T07:46:17.083Z,96981.41
2022-12-12T07:48:45.801Z,96987.22
2022-12-12T07:51:14.387Z,96983.66
2022-12-12T07:53:43.252Z,96986.03
2022-12-12T07:56:13.801Z,96974.22
2022-12-12T07:58:43.338Z,96977.78
2022-12-12T08:01:14.984Z,96980.31
2022-12-12T08:03:43.802Z,96988.91
2022-12-12T08:06:12.628Z,96978.97
2022-12-12T08:08:40.631Z,96982.06
2022-12-12T08:11:10.415Z,96987.31
2022-12-12T08:13:39.677Z,96993.38
2022-12-12T08:16:14.825Z,96991.59
2022-12-12T08:18:42.962Z,96999.03
2022-12-12T08:21:12.531Z,96999.53
2022-12-12T08:23:41.052Z,96992.97
2022-12-12T08:26:10.321Z,96995.31
2022-12-12T08:28:39.311Z,96990.28
2022-12-12T08:31:09.071Z,97002.66
2022-12-12T08:33:37.071Z,97010.94
2022-12-12T08:36:13.364Z,97006.78
2022-12-12T08:38:41.387Z,97003.59
2022-12-12T08:41:10.010Z,97001.81
2022-12-12T08:43:38.130Z,97001.94
2022-12-12T08:46:13.738Z,97002.97
2022-12-12T08:48:45.512Z,96998.84
2022-12-12T08:51:14.063Z,97002.56
2022-12-12T08:53:44.359Z,97010.69
2022-12-12T08:56:12.407Z,97007.25
2022-12-12T08:58:40.365Z,97005.78
2022-12-12T09:01:13.117Z,96999.81
2022-12-12T09:03:41.250Z,97007.31
2022-12-12T09:06:10.332Z,97007.28
2022-12-12T09:08:38.722Z,97006.53
2022-12-12T09:11:07.228Z,97001.22
2022-12-12T09:13:35.420Z,97001.97
2022-12-12T09:16:03.446Z,97002.84
2022-12-12T09:18:33.348Z,97005.75
2022-12-12T09:21:01.378Z,96999.09
2022-12-12T09:23:29.870Z,97012.25
2022-12-12T09:25:57.925Z,97001.97
2022-12-12T09:28:27.284Z,97010.06
2022-12-12T09:30:55.373Z,97004.13
2022-12-12T09:33:23.540Z,97006.53
2022-12-12T09:36:00.325Z,97012.88
2022-12-12T09:38:28.964Z,97015.13
2022-12-12T09:41:00.932Z,97005.06
2022-12-12T09:43:32.601Z,97005.63
2022-12-12T09:46:01.954Z,97005.59
2022-12-12T09:48:37.786Z,97006.75
2022-12-12T09:51:07.359Z,97007.53
2022-12-12T09:53:35.582Z,97006.75
2022-12-12T09:56:11.075Z,97005.44
2022-12-12T09:58:50.185Z,97006.88
2022-12-12T10:01:27.024Z,97000.03
2022-12-12T10:04:08.923Z,97008.03
2022-12-12T10:06:45.032Z,97009.00
2022-12-12T10:09:34.286Z,96997.91
2022-12-12T10:12:08.387Z,97012.50
2022-12-12T10:14:40.464Z,97005.03
2022-12-12T10:17:15.725Z,97010.06
2022-12-12T10:19:50.312Z,97008.13
2022-12-12T10:22:30.201Z,97003.03
2022-12-12T10:25:04.551Z,97012.41
2022-12-12T10:27:32.680Z,97004.44
2022-12-12T10:30:14.930Z,97019.47
2022-12-12T10:32:54.011Z,97013.03
2022-12-12T10:35:30.269Z,97000.75
2022-12-12T10:38:12.930Z,97012.72
2022-12-12T10:40:48.246Z,97003.31
2022-12-12T10:43:22.440Z,96995.41
2022-12-12T10:46:19.163Z,96997.63
2022-12-12T10:48:49.180Z,97002.06
2022-12-12T10:51:20.022Z,97001.94
2022-12-12T10:53:49.579Z,96990.69
2022-12-12T10:56:22.134Z,96989.97
2022-12-12T10:58:55.979Z,96988.31
2022-12-12T11:02:00.667Z,97005.41
2022-12-12T11:04:17.458Z,96992.06
2022-12-12T11:06:49.366Z,96993.53
2022-12-12T11:09:23.154Z,96985.59
2022-12-12T11:12:02.718Z,96993.63
2022-12-12T11:14:35.623Z,97006.31
2022-12-12T11:17:21.097Z,97007.69
2022-12-12T11:19:49.260Z,96984.50
2022-12-12T11:22:17.964Z,96995.00
2022-12-12T11:24:50.228Z,96996.59
2022-12-12T11:27:23.742Z,97000.31
2022-12-12T11:29:55.922Z,96992.66
2022-12-12T11:32:27.468Z,96997.13
2022-12-12T11:34:58.967Z,96993.31
2022-12-12T11:37:36.216Z,96999.00
2022-12-12T11:40:07.270Z,96993.97
2022-12-12T11:42:35.951Z,96993.19
2022-12-12T11:45:06.337Z,96992.97
2022-12-12T11:47:41.772Z,96991.69
2022-12-12T11:50:22.254Z,96991.59
2022-12-12T11:52:52.257Z,97007.16
2022-12-12T11:55:29.546Z,96993.22
2022-12-12T11:58:11.985Z,96995.63
2022-12-12T12:00:47.104Z,97006.34
2022-12-12T12:03:30.351Z,96993.63
2022-12-12T12:06:23.716Z,96998.78
2022-12-12T12:09:16.605Z,96998.22
2022-12-12T12:11:56.196Z,97009.25
2022-12-12T12:14:42.812Z,96997.16
2022-12-12T12:17:20.195Z,97000.63
2022-12-12T12:19:57.014Z,97007.63
2022-12-12T12:22:38.231Z,97000.97
2022-12-12T12:25:25.110Z,96992.66
2022-12-12T12:28:07.681Z,97001.34
2022-12-12T12:30:48.192Z,96995.31
2022-12-12T12:33:39.872Z,97011.78
2022-12-12T12:36:21.179Z,97005.44
2022-12-12T12:39:05.743Z,97008.16
2022-12-12T12:41:50.809Z,97012.53
2022-12-12T12:44:38.609Z,97008.19
2022-12-12T12:47:19.015Z,96999.03
2022-12-12T12:49:52.347Z,97011.16
2022-12-12T12:52:26.493Z,97001.50
2022-12-12T12:54:57.149Z,97014.41
2022-12-12T12:57:29.720Z,96999.69
2022-12-12T13:00:01.261Z,97012.63
2022-12-12T13:02:42.378Z,97022.06
2022-12-12T13:05:16.101Z,97037.25
2022-12-12T13:07:52.740Z,97012.63
2022-12-12T13:10:24.023Z,97021.91
2022-12-12T13:12:57.098Z,97025.03
2022-12-12T13:15:32.068Z,97015.22
2022-12-12T13:18:02.423Z,97014.50
2022-12-12T13:20:36.072Z,97028.09
2022-12-12T13:23:15.252Z,97024.28
2022-12-12T13:25:53.306Z,97026.63
2022-12-12T13:28:26.304Z,97030.50
2022-12-12T13:31:13.488Z,97034.88
2022-12-12T13:33:45.973Z,97033.78
2022-12-12T13:36:23.125Z,97049.69
2022-12-12T13:38:58.077Z,97031.94
2022-12-12T13:41:26.159Z,97057.03
2022-12-12T13:43:58.947Z,97046.59
2022-12-12T13:46:41.052Z,97047.56
2022-12-12T13:49:24.765Z,97055.06
2022-12-12T13:51:53.507Z,97051.69
2022-12-12T13:54:53.697Z,97050.63
2022-12-12T13:57:28.497Z,97052.53
2022-12-12T14:00:30.207Z,97056.97
2022-12-12T14:03:07.296Z,97060.38
2022-12-12T14:05:39.809Z,97057.06
2022-12-12T14:08:21.607Z,97056.16
2022-12-12T14:10:57.215Z,97065.03
2022-12-12T14:13:38.877Z,97071.59
2022-12-12T14:16:18.215Z,97069.22
2022-12-12T14:19:03.383Z,97072.22
2022-12-12T14:21:44.141Z,97072.38
2022-12-12T14:24:48.410Z,97073.66
2022-12-12T14:27:16.830Z,97070.78
2022-12-12T14:29:45.920Z,97083.50
2022-12-12T14:32:34.616Z,97075.34
2022-12-12T14:35:20.411Z,97077.81
2022-12-12T14:37:57.761Z,97080.22
2022-12-12T14:40:30.545Z,97081.00
2022-12-12T14:43:19.563Z,97079.56
2022-12-12T14:45:56.800Z,97082.41
2022-12-12T14:48:27.386Z,97077.94
2022-12-12T14:51:10.330Z,97074.47
2022-12-12T14:53:47.571Z,97085.47
2022-12-12T14:56:17.633Z,97084.63
2022-12-12T14:58:48.822Z,97084.69
2022-12-12T15:01:20.060Z,97092.81
2022-12-12T15:03:50.972Z,97085.31
2022-12-12T15:06:35.145Z,97087.59
2022-12-12T15:09:25.744Z,97094.75
2022-12-12T15:11:55.844Z,97097.97
2022-12-12T15:14:26.957Z,97098.41
2022-12-12T15:17:01.435Z,97102.28
2022-12-12T15:19:33.810Z,97100.66
2022-12-12T15:22:03.539Z,97117.91
2022-12-12T15:24:39.276Z,97109.88
2022-12-12T15:27:08.112Z,97111.91
2022-12-12T15:29:38.659Z,97110.53
2022-12-12T15:32:10.048Z,97118.56
2022-12-12T15:34:41.460Z,97119.50
2022-12-12T15:37:22.042Z,97112.19
2022-12-12T15:40:17.666Z,97117.53
2022-12-12T15:42:48.487Z,97123.72
2022-12-12T15:45:20.995Z,97124.41
2022-12-12T15:47:49.498Z,97120.50
2022-12-12T15:50:20.938Z,97125.59
2022-12-12T15:53:03.458Z,97122.09
2022-12-12T15:55:31.931Z,97125.41
2022-12-12T15:58:00.239Z,97129.56
2022-12-12T16:00:38.312Z,97138.31
2022-12-12T16:03:20.684Z,97139.97
2022-12-12T16:06:04.242Z,97126.97
2022-12-12T16:08:55.233Z,97138.63
2022-12-12T16:11:39.573Z,97134.44
2022-12-12T16:14:25.016Z,97132.22
2022-12-12T16:16:57.240Z,97138.59
2022-12-12T16:19:35.242Z,97136.78
2022-12-12T16:22:06.139Z,97142.81
2022-12-12T16:24:47.132Z,97142.47
2022-12-12T16:27:15.301Z,97138.38
2022-12-12T16:29:43.946Z,97144.22
2022-12-12T16:32:15.399Z,97156.78
2022-12-12T16:34:44.179Z,97149.56
2022-12-12T16:37:17.218Z,97148.47
2022-12-12T16:39:47.299Z,97161.03
2022-12-12T16:42:16.958Z,97161.84
2022-12-12T16:44:45.493Z,97161.06
2022-12-12T16:47:17.478Z,97169.41
2022-12-12T16:49:45.761Z,97174.13
2022-12-12T16:52:14.690Z,97166.53
2022-12-12T16:54:46.868Z,97174.94
2022-12-12T16:57:20.566Z,97164.94
2022-12-12T16:59:48.638Z,97174.66
2022-12-12T17:02:20.441Z,97181.00
2022-12-12T17:04:49.546Z,97182.56
2022-12-12T17:07:17.805Z,97190.78
2022-12-12T17:09:45.995Z,97188.81
2022-12-12T17:12:15.725Z,97179.97
2022-12-12T17:14:45.282Z,97198.47
2022-12-12T17:17:13.315Z,97199.44
2022-12-12T17:19:42.539Z,97197.28
2022-12-12T17:22:10.621Z,97198.19
2022-12-12T17:24:38.604Z,97198.84
2022-12-12T17:27:07.429Z,97203.38
2022-12-12T17:29:35.513Z,97207.88
2022-12-12T17:32:05.416Z,97199.06
2022-12-12T17:34:33.416Z,97208.97
2022-12-12T17:37:01.413Z,97216.22
2022-12-12T17:39:29.455Z,97213.44
2022-12-12T17:41:58.587Z,97220.97
2022-12-12T17:44:26.763Z,97211.94
2022-12-12T17:46:55.063Z,97208.22
2022-12-12T17:49:24.455Z,97210.81
2022-12-12T17:51:52.523Z,97221.66
2022-12-12T17:54:20.725Z,97229.63
2022-12-12T17:56:48.849Z,97219.28
2022-12-12T17:59:16.883Z,97232.22
2022-12-12T18:01:44.882Z,97231.03
2022-12-12T18:04:13.018Z,97221.31
2022-12-12T18:06:42.545Z,97227.72
2022-12-12T18:09:10.535Z,97227.91
2022-12-12T18:11:38.973Z,97226.38
2022-12-12T18:14:09.013Z,97227.22
2022-12-12T18:16:37.542Z,97229.41
2022-12-12T18:19:05.849Z,97237.94
2022-12-12T18:21:59.940Z,97228.63
2022-12-12T18:24:29.336Z,97244.28
2022-12-12T18:26:59.473Z,97248.25
2022-12-12T18:29:28.450Z,97238.88
2022-12-12T18:31:56.896Z,97244.00
2022-12-12T18:34:25.897Z,97247.41
2022-12-12T18:36:54.185Z,97255.69
2022-12-12T18:39:22.198Z,97253.25
2022-12-12T18:41:52.115Z,97264.06
2022-12-12T18:44:20.425Z,97262.63
2022-12-12T18:46:51.707Z,97264.41
2022-12-12T18:49:20.049Z,97270.31
2022-12-12T18:51:48.629Z,97270.50
2022-12-12T18:54:17.544Z,97273.00
2022-12-12T18:56:46.965Z,97273.13
2022-12-12T18:59:17.617Z,97282.97
2022-12-12T19:01:46.134Z,97272.22
2022-12-12T19:04:20.863Z,97278.50
2022-12-12T19:06:53.034Z,97287.69
2022-12-12T19:09:22.115Z,97284.31
2022-12-12T19:11:55.584Z,97293.91
2022-12-12T19:17:25.786Z,97303.69
2022-12-12T19:19:54.972Z,97313.19
2022-12-12T19:22:44.413Z,97308.38
2022-12-12T19:25:11.007Z,97313.84
2022-12-12T19:27:39.070Z,97320.16
2022-12-12T19:30:10.306Z,97320.78
2022-12-12T19:32:38.516Z,97323.09
2022-12-12T19:35:07.454Z,97326.72
2022-12-12T19:37:37.263Z,97324.84
2022-12-12T19:40:06.010Z,97327.91
2022-12-12T19:42:33.963Z,97333.72
2022-12-12T19:45:01.982Z,97331.13
2022-12-12T19:47:31.349Z,97340.16
2022-12-12T19:50:00.296Z,97341.50
2022-12-12T19:52:28.471Z,97331.16
2022-12-12T19:54:56.435Z,97340.25
2022-12-12T19:57:26.382Z,97338.72
2022-12-12T19:59:54.453Z,97352.09
2022-12-12T20:02:22.467Z,97350.53
2022-12-12T20:04:51.881Z,97360.97
2022-12-12T20:07:19.878Z,97358.66
2022-12-12T20:09:47.956Z,97355.97
2022-12-12T20:12:15.939Z,97361.56
2022-12-12T20:14:43.973Z,97362.91
2022-12-12T20:17:12.200Z,97377.75
2022-12-12T20:19:40.303Z,97375.19
2022-12-12T20:22:10.750Z,97380.19
2022-12-12T20:24:39.905Z,97380.00
2022-12-12T20:27:08.995Z,97380.84
2022-12-12T20:29:37.126Z,97377.63
2022-12-12T20:32:05.592Z,97406.72
2022-12-12T20:34:33.573Z,97375.84
2022-12-12T20:37:01.571Z,97386.69
2022-12-12T20:39:31.785Z,97395.69
2022-12-12T20:41:59.787Z,97397.94
2022-12-12T20:44:29.229Z,97398.84
2022-12-12T20:46:58.871Z,97403.53
2022-12-12T20:49:28.900Z,97405.94
2022-12-12T20:51:58.613Z,97398.28
2022-12-12T20:54:28.414Z,97410.03
2022-12-12T20:56:59.747Z,97412.72
2022-12-12T20:59:28.823Z,97411.41
2022-12-12T21:01:56.987Z,97412.72
2022-12-12T21:04:25.014Z,97423.94
2022-12-12T21:06:52.993Z,97421.31
2022-12-12T21:09:26.514Z,97432.50
2022-12-12T21:11:56.155Z,97437.19
2022-12-12T21:14:25.557Z,97434.41
2022-12-12T21:16:53.797Z,97429.44
2022-12-12T21:19:23.489Z,97435.09
2022-12-12T21:21:51.966Z,97430.69
2022-12-12T21:24:20.561Z,97437.34
2022-12-12T21:26:49.115Z,97446.25
2022-12-12T21:29:17.511Z,97446.06
2022-12-12T21:31:51.461Z,97449.75
2022-12-12T21:34:22.368Z,97454.75
2022-12-12T21:36:54.398Z,97456.47
2022-12-12T21:39:23.341Z,97450.47
2022-12-12T21:41:51.738Z,97453.88
2022-12-12T21:44:20.595Z,97456.41
2022-12-12T21:46:50.263Z,97451.13
2022-12-12T21:49:26.522Z,97461.84
2022-12-12T21:51:56.082Z,97461.75
2022-12-12T21:54:24.576Z,97458.78
2022-12-12T21:56:52.939Z,97466.03
2022-12-12T21:59:21.029Z,97466.34
2022-12-12T22:01:50.454Z,97461.78
2022-12-12T22:04:18.521Z,97481.13
2022-12-12T22:06:47.257Z,97470.38
2022-12-12T22:09:15.319Z,97468.47
2022-12-12T22:11:50.005Z,97462.22
2022-12-12T22:14:21.460Z,97468.75
2022-12-12T22:16:51.198Z,97474.25
2022-12-12T22:19:19.315Z,97480.38
2022-12-12T22:21:48.484Z,97500.19
2022-12-12T22:24:16.972Z,97474.38
2022-12-12T22:26:47.096Z,97491.16
2022-12-12T22:29:17.699Z,97486.03
2022-12-12T22:31:46.577Z,97488.09
2022-12-12T22:34:17.947Z,97478.50
2022-12-12T22:36:46.753Z,97494.69
2022-12-12T22:39:17.051Z,97480.84
2022-12-12T22:41:45.704Z,97494.69
2022-12-12T22:44:17.038Z,97493.44
2022-12-12T22:46:45.771Z,97502.94
2022-12-12T22:49:20.592Z,97497.88
2022-12-12T22:51:49.285Z,97520.63
2022-12-12T22:54:17.558Z,97505.56
2022-12-12T22:56:46.089Z,97516.25
2022-12-12T22:59:15.419Z,97505.63
2022-12-12T23:01:44.080Z,97505.25
2022-12-12T23:04:13.968Z,97519.47
2022-12-12T23:06:44.329Z,97517.44
2022-12-12T23:09:15.420Z,97518.19
2022-12-12T23:11:44.243Z,97518.25
2022-12-12T23:14:15.529Z,97520.34
2022-12-12T23:16:44.578Z,97504.97
2022-12-12T23:19:15.483Z,97522.91
2022-12-12T23:21:45.415Z,97524.03
2022-12-12T23:24:14.852Z,97525.25
2022-12-12T23:26:43.727Z,97529.41
2022-12-12T23:29:16.950Z,97531.47
2022-12-12T23:31:45.458Z,97536.38
2022-12-12T23:34:17.720Z,97539.16
2022-12-12T23:36:47.814Z,97551.38
2022-12-12T23:39:16.227Z,97544.59
2022-12-12T23:41:45.133Z,97548.25
2022-12-12T23:44:15.276Z,97564.16
2022-12-12T23:46:44.308Z,97556.22
2022-12-12T23:49:16.992Z,97553.16
2022-12-12T23:51:48.052Z,97564.44
2022-12-12T23:54:17.645Z,97548.53
2022-12-12T23:56:46.317Z,97563.09
2022-12-12T23:59:17.938Z,97561.78
